createdAt,value
2019-03-20T00:00:54.550Z,9.73
2019-03-20T00:03:22.703Z,9.85
2019-03-20T00:06:10.189Z,9.53
2019-03-20T00:08:38.400Z,9.00
2019-03-20T00:11:09.906Z,10.70
2019-03-20T00:13:38.026Z,10.40
2019-03-20T00:16:12.661Z,9.60
2019-03-20T00:18:40.823Z,9.18
2019-03-20T00:21:11.855Z,9.13
2019-03-20T00:23:39.977Z,11.00
2019-03-20T00:26:08.097Z,8.77
2019-03-20T00:28:36.323Z,8.85
2019-03-20T00:31:04.524Z,9.43
2019-03-20T00:33:33.446Z,8.47
2019-03-20T00:36:01.645Z,10.60
2019-03-20T00:38:29.834Z,10.23
2019-03-20T00:40:58.067Z,10.82
2019-03-20T00:43:26.199Z,10.07
2019-03-20T00:45:54.321Z,9.48
2019-03-20T00:48:22.471Z,10.20
2019-03-20T00:50:50.628Z,9.53
2019-03-20T00:53:18.809Z,10.50
2019-03-20T00:55:47.003Z,9.83
2019-03-20T00:58:15.128Z,10.47
2019-03-20T01:00:43.337Z,10.80
2019-03-20T01:03:11.550Z,9.95
2019-03-20T01:05:39.809Z,10.20
2019-03-20T01:08:07.923Z,10.27
2019-03-20T01:10:36.207Z,10.07
2019-03-20T01:13:05.098Z,10.00
2019-03-20T01:15:33.254Z,10.43
2019-03-20T01:18:07.611Z,9.90
2019-03-20T01:20:35.733Z,12.17
2019-03-20T01:23:03.923Z,10.03
2019-03-20T01:25:32.076Z,10.43
2019-03-20T01:28:00.206Z,10.60
2019-03-20T01:30:31.914Z,10.53
2019-03-20T01:33:00.886Z,10.17
2019-03-20T01:35:29.078Z,10.70
2019-03-20T01:37:57.206Z,10.63
2019-03-20T01:40:25.711Z,10.60
2019-03-20T01:42:53.861Z,10.57
2019-03-20T01:45:21.987Z,9.97
2019-03-20T01:47:50.123Z,10.03
2019-03-20T01:50:18.280Z,10.17
2019-03-20T01:52:46.396Z,9.93
2019-03-20T01:55:14.519Z,10.60
2019-03-20T01:57:42.668Z,9.80
2019-03-20T02:00:11.123Z,10.53
2019-03-20T02:02:39.352Z,10.05
2019-03-20T02:05:08.107Z,9.78
2019-03-20T02:07:36.348Z,10.90
2019-03-20T02:10:06.016Z,10.38
2019-03-20T02:12:34.250Z,10.67
2019-03-20T02:15:04.670Z,11.10
2019-03-20T02:17:32.824Z,10.13
2019-03-20T02:20:01.438Z,11.30
2019-03-20T02:22:29.550Z,10.57
2019-03-20T02:24:57.683Z,10.50
2019-03-20T02:27:25.812Z,10.67
2019-03-20T02:29:54.005Z,11.33
2019-03-20T02:32:22.167Z,11.60
2019-03-20T02:34:50.300Z,10.30
2019-03-20T02:37:18.523Z,10.17
2019-03-20T02:39:46.646Z,10.80
2019-03-20T02:42:14.798Z,10.90
2019-03-20T02:44:42.979Z,10.83
2019-03-20T02:47:11.088Z,10.77
2019-03-20T02:49:39.324Z,11.65
2019-03-20T02:52:07.434Z,10.00
2019-03-20T02:54:35.543Z,10.07
2019-03-20T02:57:03.796Z,11.17
2019-03-20T02:59:31.990Z,11.30
2019-03-20T03:02:00.128Z,10.57
2019-03-20T03:04:28.314Z,12.20
2019-03-20T03:06:56.444Z,11.07
2019-03-20T03:09:24.570Z,10.70
2019-03-20T03:11:52.714Z,10.10
2019-03-20T03:14:28.516Z,10.33
2019-03-20T03:16:56.672Z,11.23
2019-03-20T03:19:25.684Z,10.17
2019-03-20T03:21:53.810Z,10.37
2019-03-20T03:24:21.976Z,10.90
2019-03-20T03:26:50.165Z,11.70
2019-03-20T03:29:18.303Z,11.75
2019-03-20T03:31:46.434Z,11.63
2019-03-20T03:34:14.556Z,11.63
2019-03-20T03:36:42.772Z,11.63
2019-03-20T03:39:10.963Z,11.17
2019-03-20T03:41:39.117Z,10.97
2019-03-20T03:44:07.248Z,11.23
2019-03-20T03:46:35.372Z,10.30
2019-03-20T03:49:03.574Z,10.73
2019-03-20T03:51:32.492Z,11.40
2019-03-20T03:54:00.728Z,10.73
2019-03-20T03:56:28.854Z,10.87
2019-03-20T03:58:57.113Z,11.40
2019-03-20T04:01:25.240Z,11.60
2019-03-20T04:03:53.382Z,14.97
2019-03-20T04:06:34.531Z,10.40
2019-03-20T04:08:51.403Z,10.68
2019-03-20T04:11:19.529Z,11.37
2019-03-20T04:13:48.389Z,12.43
2019-03-20T04:16:16.500Z,10.80
2019-03-20T04:18:44.691Z,11.10
2019-03-20T04:21:12.900Z,11.93
2019-03-20T04:23:41.117Z,12.50
2019-03-20T04:26:09.311Z,11.00
2019-03-20T04:28:37.536Z,11.77
2019-03-20T04:31:05.661Z,10.53
2019-03-20T04:33:33.847Z,11.90
2019-03-20T04:36:02.041Z,10.43
2019-03-20T04:38:30.218Z,10.90
2019-03-20T04:40:58.392Z,12.03
2019-03-20T04:43:26.555Z,11.28
2019-03-20T04:45:54.760Z,11.43
2019-03-20T04:48:22.935Z,11.40
2019-03-20T04:50:51.167Z,11.70
2019-03-20T04:53:19.325Z,10.28
2019-03-20T04:55:47.457Z,11.23
2019-03-20T04:58:15.695Z,11.70
2019-03-20T05:00:43.828Z,10.60
2019-03-20T05:03:11.992Z,11.43
2019-03-20T05:05:40.181Z,11.20
2019-03-20T05:08:08.401Z,12.60
2019-03-20T05:10:36.742Z,11.70
2019-03-20T05:13:04.900Z,11.00
2019-03-20T05:15:33.110Z,10.43
2019-03-20T05:18:01.247Z,11.45
2019-03-20T05:20:29.409Z,11.13
2019-03-20T05:22:57.525Z,10.72
2019-03-20T05:25:25.684Z,11.10
2019-03-20T05:27:53.832Z,11.33
2019-03-20T05:30:22.141Z,11.00
2019-03-20T05:32:50.257Z,10.23
2019-03-20T05:35:18.377Z,10.90
2019-03-20T05:37:46.507Z,11.07
2019-03-20T05:40:15.217Z,10.33
2019-03-20T05:42:43.442Z,11.53
2019-03-20T05:45:13.160Z,11.20
2019-03-20T05:47:41.286Z,11.73
2019-03-20T05:50:10.601Z,11.30
2019-03-20T05:52:38.812Z,10.67
2019-03-20T05:55:10.119Z,12.00
2019-03-20T05:57:38.320Z,10.53
2019-03-20T06:00:07.980Z,10.13
2019-03-20T06:02:36.116Z,10.48
2019-03-20T06:05:05.339Z,11.28
2019-03-20T06:07:33.476Z,10.35
2019-03-20T06:10:01.589Z,11.90
2019-03-20T06:12:29.934Z,10.03
2019-03-20T06:14:58.047Z,10.67
2019-03-20T06:17:26.177Z,10.63
2019-03-20T06:19:54.308Z,11.70
2019-03-20T06:22:22.625Z,10.43
2019-03-20T06:24:51.178Z,9.65
2019-03-20T06:27:19.303Z,10.50
2019-03-20T06:29:47.504Z,10.50
2019-03-20T06:32:15.746Z,9.73
2019-03-20T06:34:43.879Z,9.13
2019-03-20T06:37:11.998Z,10.43
2019-03-20T06:39:40.131Z,10.70
2019-03-20T06:42:08.298Z,9.53
2019-03-20T06:44:36.460Z,10.10
2019-03-20T06:47:04.674Z,10.38
2019-03-20T06:49:32.859Z,10.93
2019-03-20T06:52:01.043Z,11.90
2019-03-20T06:54:29.169Z,10.50
2019-03-20T06:56:57.371Z,9.37
2019-03-20T06:59:30.202Z,9.93
2019-03-20T07:01:59.090Z,8.60
2019-03-20T07:04:44.048Z,9.67
2019-03-20T07:07:15.394Z,10.23
2019-03-20T07:09:48.172Z,9.97
2019-03-20T07:12:16.287Z,10.60
2019-03-20T07:14:44.422Z,11.23
2019-03-20T07:17:12.601Z,10.03
2019-03-20T07:19:40.749Z,10.17
2019-03-20T07:22:08.935Z,8.90
2019-03-20T07:24:37.107Z,9.83
2019-03-20T07:27:05.257Z,10.03
2019-03-20T07:29:33.454Z,10.50
2019-03-20T07:32:01.585Z,8.88
2019-03-20T07:34:29.701Z,8.07
2019-03-20T07:36:57.846Z,9.83
2019-03-20T07:39:26.038Z,10.10
2019-03-20T07:41:54.399Z,10.10
2019-03-20T07:44:22.513Z,9.80
2019-03-20T07:46:50.683Z,9.67
2019-03-20T07:49:18.803Z,9.87
2019-03-20T07:51:46.919Z,9.93
2019-03-20T07:54:15.054Z,10.20
2019-03-20T07:56:43.203Z,9.30
2019-03-20T07:59:11.337Z,9.87
2019-03-20T08:01:39.589Z,10.67
2019-03-20T08:04:08.350Z,10.18
2019-03-20T08:06:36.534Z,10.07
2019-03-20T08:09:05.725Z,10.23
2019-03-20T08:11:33.884Z,10.95
2019-03-20T08:14:02.028Z,10.07
2019-03-20T08:16:30.190Z,9.40
2019-03-20T08:18:58.337Z,12.30
2019-03-20T08:21:26.495Z,9.20
2019-03-20T08:23:54.596Z,9.60
2019-03-20T08:26:22.719Z,9.97
2019-03-20T08:28:50.848Z,8.63
2019-03-20T08:31:19.081Z,9.13
2019-03-20T08:33:47.200Z,9.10
2019-03-20T08:36:15.340Z,13.00
2019-03-20T08:38:43.464Z,9.23
2019-03-20T08:41:11.682Z,9.63
2019-03-20T08:43:39.875Z,10.57
2019-03-20T08:46:14.063Z,9.57
2019-03-20T08:48:42.185Z,9.07
2019-03-20T08:51:10.423Z,9.67
2019-03-20T08:53:38.540Z,10.77
2019-03-20T08:56:06.834Z,9.93
2019-03-20T08:58:34.980Z,9.63
2019-03-20T09:01:03.091Z,11.30
2019-03-20T09:03:31.310Z,9.87
2019-03-20T09:06:00.203Z,11.03
2019-03-20T09:08:29.557Z,10.97
2019-03-20T09:10:58.126Z,11.70
2019-03-20T09:13:26.287Z,13.70
2019-03-20T09:15:54.478Z,10.77
2019-03-20T09:18:22.599Z,11.23
2019-03-20T09:20:50.746Z,9.43
2019-03-20T09:23:18.982Z,9.60
2019-03-20T09:25:47.098Z,10.20
2019-03-20T09:28:15.229Z,9.90
2019-03-20T09:30:43.345Z,9.10
2019-03-20T09:33:11.472Z,9.20
2019-03-20T09:35:39.730Z,10.63
2019-03-20T09:38:07.936Z,10.77
2019-03-20T09:40:36.108Z,9.88
2019-03-20T09:43:04.309Z,10.07
2019-03-20T09:45:32.428Z,10.53
2019-03-20T09:48:00.590Z,9.68
2019-03-20T09:50:29.043Z,11.00
2019-03-20T09:52:57.148Z,9.10
2019-03-20T09:55:25.352Z,8.83
2019-03-20T09:57:53.479Z,9.45
2019-03-20T10:00:25.806Z,8.97
2019-03-20T10:02:53.992Z,9.33
2019-03-20T10:05:22.200Z,9.73
2019-03-20T10:07:50.492Z,10.23
2019-03-20T10:10:19.529Z,9.80
2019-03-20T10:12:47.737Z,10.57
2019-03-20T10:15:16.889Z,9.37
2019-03-20T10:17:45.092Z,9.27
2019-03-20T10:20:14.488Z,9.50
2019-03-20T10:22:42.742Z,9.70
2019-03-20T10:25:11.061Z,9.20
2019-03-20T10:27:39.262Z,10.20
2019-03-20T10:30:17.648Z,10.07
2019-03-20T10:32:45.876Z,10.17
2019-03-20T10:35:14.112Z,9.90
2019-03-20T10:37:42.366Z,8.97
2019-03-20T10:40:11.895Z,10.30
2019-03-20T10:42:40.086Z,9.90
2019-03-20T10:45:09.610Z,10.47
2019-03-20T10:47:38.088Z,10.47
2019-03-20T10:50:07.815Z,9.17
2019-03-20T10:52:36.761Z,9.57
2019-03-20T10:55:05.866Z,9.05
2019-03-20T10:57:33.991Z,10.00
2019-03-20T11:00:02.159Z,10.07
2019-03-20T11:02:30.329Z,9.37
2019-03-20T11:04:58.579Z,9.28
2019-03-20T11:07:26.723Z,9.40
2019-03-20T11:09:54.877Z,8.90
2019-03-20T11:12:23.059Z,9.37
2019-03-20T11:14:51.213Z,9.07
2019-03-20T11:17:19.330Z,9.87
2019-03-20T11:19:47.545Z,8.33
2019-03-20T11:22:18.982Z,8.73
2019-03-20T11:24:45.521Z,9.10
2019-03-20T11:27:14.115Z,9.58
2019-03-20T11:29:42.235Z,9.03
2019-03-20T11:32:11.120Z,8.57
2019-03-20T11:34:39.276Z,8.93
2019-03-20T11:37:07.466Z,10.27
2019-03-20T11:39:35.596Z,9.87
2019-03-20T11:42:03.741Z,8.68
2019-03-20T11:44:31.861Z,8.93
2019-03-20T11:46:59.990Z,8.23
2019-03-20T11:49:28.625Z,8.18
2019-03-20T11:51:56.772Z,7.80
2019-03-20T11:54:24.970Z,6.53
2019-03-20T11:56:53.108Z,8.68
2019-03-20T11:59:21.267Z,7.43
2019-03-20T12:01:49.476Z,7.95
2019-03-20T12:04:17.753Z,6.30
2019-03-20T12:06:45.954Z,7.63
2019-03-20T12:09:14.139Z,8.07
2019-03-20T12:11:46.194Z,7.40
2019-03-20T12:14:12.147Z,6.20
2019-03-20T12:16:40.335Z,5.60
2019-03-20T12:19:08.483Z,5.77
2019-03-20T12:21:36.611Z,5.60
2019-03-20T12:24:04.832Z,5.53
2019-03-20T12:26:32.958Z,6.90
2019-03-20T12:29:01.086Z,5.57
2019-03-20T12:31:29.198Z,5.60
2019-03-20T12:33:57.315Z,5.70
2019-03-20T12:36:25.432Z,5.33
2019-03-20T12:38:53.534Z,4.57
2019-03-20T12:41:22.020Z,4.50
2019-03-20T12:43:50.207Z,4.30
2019-03-20T12:46:18.358Z,4.27
2019-03-20T12:48:46.479Z,5.03
2019-03-20T12:51:14.638Z,4.83
2019-03-20T12:53:42.759Z,4.35
2019-03-20T12:56:10.991Z,4.80
2019-03-20T12:58:39.337Z,4.47
2019-03-20T13:01:07.596Z,5.20
2019-03-20T13:03:35.790Z,4.90
2019-03-20T13:06:03.997Z,5.30
2019-03-20T13:08:32.240Z,5.17
2019-03-20T13:11:00.407Z,5.10
2019-03-20T13:13:28.539Z,5.17
2019-03-20T13:15:57.431Z,5.37
2019-03-20T13:18:25.624Z,5.47
2019-03-20T13:20:53.785Z,5.27
2019-03-20T13:23:23.786Z,5.70
2019-03-20T13:25:51.916Z,5.07
2019-03-20T13:28:20.128Z,4.83
2019-03-20T13:30:50.159Z,4.77
2019-03-20T13:33:25.582Z,5.77
2019-03-20T13:35:48.131Z,5.22
2019-03-20T13:38:16.255Z,5.97
2019-03-20T13:40:44.481Z,5.60
2019-03-20T13:43:12.662Z,9.23
2019-03-20T13:45:40.783Z,8.13
2019-03-20T13:48:09.055Z,6.90
2019-03-20T13:50:37.216Z,5.57
2019-03-20T13:53:05.393Z,5.13
2019-03-20T13:55:33.585Z,5.25
2019-03-20T13:58:01.757Z,5.03
2019-03-20T14:00:30.003Z,5.70
2019-03-20T14:02:58.115Z,6.27
2019-03-20T14:05:26.238Z,5.73
2019-03-20T14:07:54.435Z,6.10
2019-03-20T14:10:25.405Z,7.13
2019-03-20T14:12:53.141Z,8.33
2019-03-20T14:15:21.268Z,6.30
2019-03-20T14:17:49.473Z,8.04
2019-03-20T14:20:27.304Z,6.83
2019-03-20T14:22:55.488Z,8.57
2019-03-20T14:25:23.630Z,7.37
2019-03-20T14:27:52.127Z,7.17
2019-03-20T14:30:21.331Z,6.30
2019-03-20T14:32:49.439Z,6.77
2019-03-20T14:35:17.580Z,5.87
2019-03-20T14:37:47.357Z,8.77
2019-03-20T14:40:19.974Z,6.45
2019-03-20T14:42:48.092Z,6.03
2019-03-20T14:45:16.294Z,6.60
2019-03-20T14:47:44.400Z,6.60
2019-03-20T14:50:14.287Z,6.17
2019-03-20T14:52:42.602Z,6.47
2019-03-20T14:55:11.782Z,6.20
2019-03-20T14:57:39.895Z,6.77
2019-03-20T15:00:09.637Z,5.70
2019-03-20T15:02:37.841Z,5.92
2019-03-20T15:05:06.685Z,6.07
2019-03-20T15:07:34.829Z,6.85
2019-03-20T15:10:04.487Z,6.43
2019-03-20T15:12:33.351Z,7.37
2019-03-20T15:17:23.493Z,6.63
2019-03-20T15:19:51.603Z,6.83
2019-03-20T15:22:19.781Z,7.00
2019-03-20T15:24:47.947Z,8.13
2019-03-20T15:27:16.110Z,6.97
2019-03-20T15:29:44.395Z,6.27
2019-03-20T15:32:12.550Z,6.43
2019-03-20T15:34:40.724Z,6.67
2019-03-20T15:37:08.836Z,6.40
2019-03-20T15:39:37.005Z,7.17
2019-03-20T15:42:05.196Z,5.93
2019-03-20T15:44:33.321Z,6.63
2019-03-20T15:47:01.494Z,6.33
2019-03-20T15:49:29.623Z,6.53
2019-03-20T15:51:57.754Z,5.83
2019-03-20T15:54:25.903Z,6.83
2019-03-20T15:56:56.010Z,7.00
2019-03-20T15:59:24.003Z,7.15
2019-03-20T16:01:52.127Z,7.10
2019-03-20T16:04:20.256Z,6.55
2019-03-20T16:06:48.396Z,6.77
2019-03-20T16:09:16.645Z,7.07
2019-03-20T16:11:44.893Z,7.67
2019-03-20T16:14:13.016Z,7.33
2019-03-20T16:16:41.187Z,6.90
2019-03-20T16:19:09.303Z,7.47
2019-03-20T16:21:37.446Z,6.78
2019-03-20T16:24:05.609Z,7.00
2019-03-20T16:26:34.576Z,6.83
2019-03-20T16:29:02.726Z,7.60
2019-03-20T16:31:30.834Z,9.10
2019-03-20T16:33:58.994Z,9.07
2019-03-20T16:36:27.119Z,7.93
2019-03-20T16:38:55.253Z,7.60
2019-03-20T16:41:23.427Z,7.40
2019-03-20T16:43:51.585Z,8.10
2019-03-20T16:46:19.704Z,6.40
2019-03-20T16:48:47.911Z,7.37
2019-03-20T16:51:16.033Z,7.12
2019-03-20T16:53:44.180Z,7.47
2019-03-20T16:56:12.386Z,8.37
2019-03-20T16:58:40.541Z,7.30
2019-03-20T17:01:08.749Z,7.67
2019-03-20T17:03:37.016Z,8.27
2019-03-20T17:06:05.273Z,8.53
2019-03-20T17:08:33.407Z,8.97
2019-03-20T17:11:01.558Z,7.53
2019-03-20T17:13:29.855Z,7.53
2019-03-20T17:15:57.971Z,8.10
2019-03-20T17:18:26.849Z,7.90
2019-03-20T17:20:55.005Z,8.57
2019-03-20T17:23:23.380Z,8.00
2019-03-20T17:25:51.529Z,8.60
2019-03-20T17:28:19.693Z,8.03
2019-03-20T17:30:48.793Z,8.33
2019-03-20T17:33:17.044Z,8.67
2019-03-20T17:35:45.233Z,8.00
2019-03-20T17:38:13.428Z,7.93
2019-03-20T17:40:41.972Z,8.57
2019-03-20T17:43:10.225Z,7.63
2019-03-20T17:45:39.172Z,8.53
2019-03-20T17:48:10.248Z,8.07
2019-03-20T17:50:38.484Z,8.60
2019-03-20T17:53:06.774Z,8.30
2019-03-20T17:55:34.942Z,8.00
2019-03-20T17:58:03.189Z,8.43
2019-03-20T18:00:39.084Z,8.53
2019-03-20T18:03:07.277Z,9.35
2019-03-20T18:05:35.614Z,9.10
2019-03-20T18:08:04.952Z,9.40
2019-03-20T18:10:33.327Z,9.13
2019-03-20T18:13:01.841Z,9.13
2019-03-20T18:15:30.116Z,8.73
2019-03-20T18:17:58.355Z,9.40
2019-03-20T18:20:26.555Z,9.47
2019-03-20T18:22:57.404Z,9.33
2019-03-20T18:25:25.688Z,8.57
2019-03-20T18:27:53.849Z,9.07
2019-03-20T18:30:23.204Z,9.37
2019-03-20T18:32:51.476Z,9.20
2019-03-20T18:35:19.795Z,10.70
2019-03-20T18:37:47.974Z,8.67
2019-03-20T18:40:20.632Z,9.00
2019-03-20T18:42:48.832Z,9.47
2019-03-20T18:45:23.398Z,9.40
2019-03-20T18:47:51.616Z,9.33
2019-03-20T18:50:20.102Z,8.93
2019-03-20T18:52:49.244Z,22.20
2019-03-20T18:55:18.171Z,11.77
2019-03-20T18:57:46.386Z,10.80
2019-03-20T19:00:16.199Z,11.37
2019-03-20T19:02:44.496Z,11.53
2019-03-20T19:05:14.376Z,10.70
2019-03-20T19:07:42.585Z,10.30
2019-03-20T19:10:11.195Z,10.07
2019-03-20T19:12:39.453Z,12.57
2019-03-20T19:15:09.492Z,14.70
2019-03-20T19:17:37.701Z,13.47
2019-03-20T19:20:07.372Z,11.80
2019-03-20T19:22:35.601Z,13.73
2019-03-20T19:25:05.038Z,11.63
2019-03-20T19:27:33.212Z,12.10
2019-03-20T19:30:01.351Z,13.73
2019-03-20T19:32:29.684Z,13.28
2019-03-20T19:35:17.147Z,12.70
2019-03-20T19:37:45.396Z,11.80
2019-03-20T19:40:15.089Z,13.33
2019-03-20T19:42:43.319Z,12.13
2019-03-20T19:45:12.974Z,11.07
2019-03-20T19:47:42.031Z,11.60
2019-03-20T19:50:14.412Z,11.73
2019-03-20T19:52:43.236Z,12.15
2019-03-20T19:55:12.896Z,11.57
2019-03-20T19:57:42.485Z,11.23
2019-03-20T20:00:12.178Z,11.80
2019-03-20T20:02:40.646Z,12.50
2019-03-20T20:05:15.713Z,12.50
2019-03-20T20:07:39.360Z,11.97
2019-03-20T20:10:08.974Z,11.23
2019-03-20T20:12:37.178Z,12.80
2019-03-20T20:15:09.631Z,11.30
2019-03-20T20:17:37.844Z,11.03
2019-03-20T20:20:11.018Z,11.13
2019-03-20T20:22:39.265Z,10.23
2019-03-20T20:25:08.292Z,10.47
2019-03-20T20:27:36.441Z,10.50
2019-03-20T20:30:06.213Z,10.83
2019-03-20T20:32:34.517Z,10.47
2019-03-20T20:35:02.652Z,10.70
2019-03-20T20:37:30.816Z,10.83
2019-03-20T20:39:58.994Z,11.00
2019-03-20T20:45:01.532Z,9.40
2019-03-20T20:47:29.837Z,9.53
2019-03-20T20:49:58.030Z,8.77
2019-03-20T20:52:26.848Z,12.40
2019-03-20T20:54:54.976Z,11.30
2019-03-20T20:57:23.142Z,15.40
2019-03-20T20:59:51.377Z,10.90
2019-03-20T21:02:19.684Z,9.80
2019-03-20T21:04:47.877Z,10.10
2019-03-20T21:07:16.108Z,10.00
2019-03-20T21:09:44.302Z,13.03
2019-03-20T21:12:12.506Z,10.33
2019-03-20T21:14:40.689Z,10.23
2019-03-20T21:17:10.411Z,10.07
2019-03-20T21:19:38.672Z,11.07
2019-03-20T21:22:24.914Z,11.10
2019-03-20T21:24:53.046Z,10.07
2019-03-20T21:27:31.863Z,11.10
2019-03-20T21:30:07.302Z,10.33
2019-03-20T21:32:37.051Z,10.07
2019-03-20T21:35:16.164Z,10.80
2019-03-20T21:37:48.618Z,10.27
2019-03-20T21:40:17.079Z,11.93
2019-03-20T21:43:07.195Z,12.37
2019-03-20T21:45:34.584Z,16.17
2019-03-20T21:48:02.726Z,11.20
2019-03-20T21:50:49.106Z,10.47
2019-03-20T21:53:19.262Z,11.40
2019-03-20T21:56:05.768Z,10.13
2019-03-20T21:58:34.973Z,11.03
2019-03-20T22:01:21.271Z,11.17
2019-03-20T22:03:49.456Z,10.53
2019-03-20T22:06:35.505Z,10.50
2019-03-20T22:09:05.178Z,30.77
2019-03-20T22:11:34.904Z,12.40
2019-03-20T22:14:12.661Z,11.07
2019-03-20T22:16:58.986Z,11.17
2019-03-20T22:19:34.578Z,11.43
2019-03-20T22:22:16.808Z,10.90
2019-03-20T22:24:49.250Z,18.07
2019-03-20T22:27:35.465Z,12.03
2019-03-20T22:30:05.110Z,11.57
2019-03-20T22:32:40.576Z,10.87
2019-03-20T22:35:13.596Z,11.75
2019-03-20T22:37:41.733Z,10.47
2019-03-20T22:40:14.337Z,10.70
2019-03-20T22:42:49.742Z,12.03
2019-03-20T22:45:37.611Z,11.87
2019-03-20T22:48:07.283Z,12.80
2019-03-20T22:50:36.943Z,13.03
2019-03-20T22:53:09.297Z,11.87
2019-03-20T22:55:42.130Z,10.43
2019-03-20T22:58:14.479Z,11.63
2019-03-20T23:00:43.691Z,11.83
2019-03-20T23:03:13.434Z,12.00
2019-03-20T23:05:41.556Z,12.47
2019-03-20T23:08:14.016Z,12.60
2019-03-20T23:10:42.543Z,12.50
2019-03-20T23:13:18.816Z,12.27
2019-03-20T23:15:40.630Z,13.05
2019-03-20T23:18:08.746Z,12.00
2019-03-20T23:20:37.656Z,12.57
2019-03-20T23:23:05.780Z,12.35
2019-03-20T23:25:33.918Z,13.07
2019-03-20T23:28:02.092Z,10.25
2019-03-20T23:30:30.979Z,11.87
2019-03-20T23:32:59.128Z,11.63
2019-03-20T23:35:27.248Z,12.33
2019-03-20T23:37:55.384Z,12.43
2019-03-20T23:40:23.539Z,11.37
2019-03-20T23:42:53.413Z,12.17
2019-03-20T23:45:21.616Z,12.23
2019-03-20T23:48:00.707Z,12.03
2019-03-20T23:50:28.851Z,11.48
2019-03-20T23:52:57.059Z,11.37
2019-03-20T23:55:25.188Z,11.57
2019-03-20T23:57:53.332Z,15.47
